sensor_id;sensor_type;location;lat;lon;timestamp;P1;durP1;ratioP1;P2;durP2;ratioP2
5460;SDS011;2753;49.196;8.286;2023-07-22T00:02:08;2.23;;;2.03;;
5460;SDS011;2753;49.196;8.286;2023-07-22T00:04:33;2.80;;;1.90;;
5460;SDS011;2753;49.196;8.286;2023-07-22T00:06:59;4.80;;;2.47;;
5460;SDS011;2753;49.196;8.286;2023-07-22T00:09:25;2.37;;;1.40;;
5460;SDS011;2753;49.196;8.286;2023-07-22T00:11:51;2.80;;;1.60;;
5460;SDS011;2753;49.196;8.286;2023-07-22T00:14:16;2.13;;;2.03;;
5460;SDS011;2753;49.196;8.286;2023-07-22T00:16:42;2.23;;;2.03;;
5460;SDS011;2753;49.196;8.286;2023-07-22T00:19:08;8.13;;;1.87;;
5460;SDS011;2753;49.196;8.286;2023-07-22T00:21:33;2.50;;;2.23;;
5460;SDS011;2753;49.196;8.286;2023-07-22T00:23:59;2.50;;;2.30;;
5460;SDS011;2753;49.196;8.286;2023-07-22T00:26:25;2.67;;;2.03;;
5460;SDS011;2753;49.196;8.286;2023-07-22T00:28:52;5.80;;;2.00;;
5460;SDS011;2753;49.196;8.286;2023-07-22T00:31:17;3.10;;;2.40;;
5460;SDS011;2753;49.196;8.286;2023-07-22T00:33:43;2.60;;;2.10;;
5460;SDS011;2753;49.196;8.286;2023-07-22T00:36:09;5.27;;;2.53;;
5460;SDS011;2753;49.196;8.286;2023-07-22T00:38:34;4.03;;;3.00;;
5460;SDS011;2753;49.196;8.286;2023-07-22T00:41:00;2.30;;;2.10;;
5460;SDS011;2753;49.196;8.286;2023-07-22T00:43:29;4.00;;;2.80;;
5460;SDS011;2753;49.196;8.286;2023-07-22T00:45:55;2.60;;;2.40;;
5460;SDS011;2753;49.196;8.286;2023-07-22T00:48:21;3.67;;;2.23;;
5460;SDS011;2753;49.196;8.286;2023-07-22T00:50:47;2.27;;;2.07;;
5460;SDS011;2753;49.196;8.286;2023-07-22T00:53:13;2.43;;;2.23;;
5460;SDS011;2753;49.196;8.286;2023-07-22T00:55:39;3.60;;;2.30;;
5460;SDS011;2753;49.196;8.286;2023-07-22T00:58:08;5.50;;;2.80;;
5460;SDS011;2753;49.196;8.286;2023-07-22T01:00:33;2.50;;;2.13;;
5460;SDS011;2753;49.196;8.286;2023-07-22T01:02:59;3.53;;;1.80;;
5460;SDS011;2753;49.196;8.286;2023-07-22T01:05:25;2.50;;;2.30;;
5460;SDS011;2753;49.196;8.286;2023-07-22T01:07:53;2.57;;;2.37;;
5460;SDS011;2753;49.196;8.286;2023-07-22T01:10:19;7.40;;;2.77;;
5460;SDS011;2753;49.196;8.286;2023-07-22T01:12:45;4.30;;;2.53;;
5460;SDS011;2753;49.196;8.286;2023-07-22T01:15:11;4.47;;;2.53;;
5460;SDS011;2753;49.196;8.286;2023-07-22T01:17:37;2.50;;;2.30;;
5460;SDS011;2753;49.196;8.286;2023-07-22T01:20:04;4.00;;;2.53;;
5460;SDS011;2753;49.196;8.286;2023-07-22T01:22:32;3.23;;;2.20;;
5460;SDS011;2753;49.196;8.286;2023-07-22T01:24:58;2.50;;;2.40;;
5460;SDS011;2753;49.196;8.286;2023-07-22T01:27:25;2.90;;;1.93;;
5460;SDS011;2753;49.196;8.286;2023-07-22T01:29:51;3.03;;;2.60;;
5460;SDS011;2753;49.196;8.286;2023-07-22T01:32:17;2.70;;;2.00;;
5460;SDS011;2753;49.196;8.286;2023-07-22T01:34:43;4.47;;;2.23;;
5460;SDS011;2753;49.196;8.286;2023-07-22T01:37:08;1.97;;;1.83;;
5460;SDS011;2753;49.196;8.286;2023-07-22T01:39:35;6.83;;;1.90;;
5460;SDS011;2753;49.196;8.286;2023-07-22T01:42:01;2.60;;;2.40;;
5460;SDS011;2753;49.196;8.286;2023-07-22T01:44:27;8.00;;;2.93;;
5460;SDS011;2753;49.196;8.286;2023-07-22T01:46:53;2.17;;;2.07;;
5460;SDS011;2753;49.196;8.286;2023-07-22T01:49:19;3.93;;;2.80;;
5460;SDS011;2753;49.196;8.286;2023-07-22T01:51:45;5.10;;;2.83;;
5460;SDS011;2753;49.196;8.286;2023-07-22T01:54:11;4.40;;;2.90;;
5460;SDS011;2753;49.196;8.286;2023-07-22T01:56:37;4.77;;;2.47;;
5460;SDS011;2753;49.196;8.286;2023-07-22T01:59:04;5.70;;;2.50;;
5460;SDS011;2753;49.196;8.286;2023-07-22T02:01:30;2.40;;;2.20;;
5460;SDS011;2753;49.196;8.286;2023-07-22T02:03:57;3.83;;;2.30;;
5460;SDS011;2753;49.196;8.286;2023-07-22T02:06:22;2.23;;;2.13;;
5460;SDS011;2753;49.196;8.286;2023-07-22T02:08:48;5.87;;;2.20;;
5460;SDS011;2753;49.196;8.286;2023-07-22T02:11:14;2.60;;;2.33;;
5460;SDS011;2753;49.196;8.286;2023-07-22T02:13:40;2.90;;;2.67;;
5460;SDS011;2753;49.196;8.286;2023-07-22T02:16:06;2.80;;;2.60;;
5460;SDS011;2753;49.196;8.286;2023-07-22T02:18:31;2.33;;;2.23;;
5460;SDS011;2753;49.196;8.286;2023-07-22T02:20:58;2.47;;;2.37;;
5460;SDS011;2753;49.196;8.286;2023-07-22T02:23:24;2.00;;;1.90;;
5460;SDS011;2753;49.196;8.286;2023-07-22T02:25:50;2.67;;;2.47;;
5460;SDS011;2753;49.196;8.286;2023-07-22T02:28:17;2.60;;;2.30;;
5460;SDS011;2753;49.196;8.286;2023-07-22T02:30:53;2.43;;;2.23;;
5460;SDS011;2753;49.196;8.286;2023-07-22T02:33:19;6.20;;;2.60;;
5460;SDS011;2753;49.196;8.286;2023-07-22T02:35:47;2.33;;;2.10;;
5460;SDS011;2753;49.196;8.286;2023-07-22T02:38:13;2.60;;;2.40;;
5460;SDS011;2753;49.196;8.286;2023-07-22T02:40:39;2.37;;;2.17;;
5460;SDS011;2753;49.196;8.286;2023-07-22T02:43:05;2.13;;;1.93;;
5460;SDS011;2753;49.196;8.286;2023-07-22T02:45:32;3.57;;;2.50;;
5460;SDS011;2753;49.196;8.286;2023-07-22T02:47:58;2.87;;;2.27;;
5460;SDS011;2753;49.196;8.286;2023-07-22T02:50:24;3.33;;;2.23;;
5460;SDS011;2753;49.196;8.286;2023-07-22T02:52:50;2.13;;;1.87;;
5460;SDS011;2753;49.196;8.286;2023-07-22T02:55:17;2.40;;;2.20;;
5460;SDS011;2753;49.196;8.286;2023-07-22T02:57:46;2.60;;;2.40;;
5460;SDS011;2753;49.196;8.286;2023-07-22T03:00:13;4.43;;;2.50;;
5460;SDS011;2753;49.196;8.286;2023-07-22T03:02:48;2.73;;;2.10;;
5460;SDS011;2753;49.196;8.286;2023-07-22T03:05:14;3.60;;;1.70;;
5460;SDS011;2753;49.196;8.286;2023-07-22T03:07:40;3.10;;;2.43;;
5460;SDS011;2753;49.196;8.286;2023-07-22T03:10:06;7.07;;;2.37;;
5460;SDS011;2753;49.196;8.286;2023-07-22T03:12:33;2.63;;;2.43;;
5460;SDS011;2753;49.196;8.286;2023-07-22T03:15:00;13.00;;;2.60;;
5460;SDS011;2753;49.196;8.286;2023-07-22T03:17:26;3.00;;;2.80;;
5460;SDS011;2753;49.196;8.286;2023-07-22T03:19:52;2.47;;;2.33;;
5460;SDS011;2753;49.196;8.286;2023-07-22T03:22:18;2.70;;;2.50;;
5460;SDS011;2753;49.196;8.286;2023-07-22T03:24:44;4.53;;;2.67;;
5460;SDS011;2753;49.196;8.286;2023-07-22T03:27:10;2.83;;;2.33;;
5460;SDS011;2753;49.196;8.286;2023-07-22T03:29:37;4.00;;;2.43;;
5460;SDS011;2753;49.196;8.286;2023-07-22T03:32:03;3.60;;;2.80;;
5460;SDS011;2753;49.196;8.286;2023-07-22T03:34:32;2.67;;;2.47;;
5460;SDS011;2753;49.196;8.286;2023-07-22T03:36:57;3.80;;;2.90;;
5460;SDS011;2753;49.196;8.286;2023-07-22T03:39:23;2.50;;;2.10;;
5460;SDS011;2753;49.196;8.286;2023-07-22T03:41:49;3.33;;;2.97;;
5460;SDS011;2753;49.196;8.286;2023-07-22T03:44:15;2.30;;;2.10;;
5460;SDS011;2753;49.196;8.286;2023-07-22T03:46:41;4.27;;;2.87;;
5460;SDS011;2753;49.196;8.286;2023-07-22T03:49:07;3.63;;;2.70;;
5460;SDS011;2753;49.196;8.286;2023-07-22T03:51:32;3.57;;;2.37;;
5460;SDS011;2753;49.196;8.286;2023-07-22T03:53:58;2.30;;;2.10;;
5460;SDS011;2753;49.196;8.286;2023-07-22T03:56:24;3.00;;;2.80;;
5460;SDS011;2753;49.196;8.286;2023-07-22T03:58:50;2.37;;;2.17;;
5460;SDS011;2753;49.196;8.286;2023-07-22T04:01:17;9.00;;;2.73;;
5460;SDS011;2753;49.196;8.286;2023-07-22T04:03:42;4.67;;;2.67;;
5460;SDS011;2753;49.196;8.286;2023-07-22T04:06:08;2.10;;;1.90;;
5460;SDS011;2753;49.196;8.286;2023-07-22T04:08:34;4.43;;;2.80;;
5460;SDS011;2753;49.196;8.286;2023-07-22T04:10:59;2.63;;;2.43;;
5460;SDS011;2753;49.196;8.286;2023-07-22T04:13:25;7.70;;;2.50;;
5460;SDS011;2753;49.196;8.286;2023-07-22T04:15:51;5.60;;;2.00;;
5460;SDS011;2753;49.196;8.286;2023-07-22T04:18:18;2.87;;;2.27;;
5460;SDS011;2753;49.196;8.286;2023-07-22T04:20:45;6.90;;;2.47;;
5460;SDS011;2753;49.196;8.286;2023-07-22T04:23:11;3.07;;;2.40;;
5460;SDS011;2753;49.196;8.286;2023-07-22T04:25:40;4.50;;;2.70;;
5460;SDS011;2753;49.196;8.286;2023-07-22T04:28:06;3.10;;;2.77;;
5460;SDS011;2753;49.196;8.286;2023-07-22T04:30:33;4.60;;;2.90;;
5460;SDS011;2753;49.196;8.286;2023-07-22T04:33:03;6.37;;;2.97;;
5460;SDS011;2753;49.196;8.286;2023-07-22T04:35:37;7.73;;;3.07;;
5460;SDS011;2753;49.196;8.286;2023-07-22T04:38:03;2.60;;;2.40;;
5460;SDS011;2753;49.196;8.286;2023-07-22T04:40:29;8.53;;;3.27;;
5460;SDS011;2753;49.196;8.286;2023-07-22T04:42:57;2.77;;;2.57;;
5460;SDS011;2753;49.196;8.286;2023-07-22T04:45:23;4.63;;;2.77;;
5460;SDS011;2753;49.196;8.286;2023-07-22T04:47:49;3.47;;;2.80;;
5460;SDS011;2753;49.196;8.286;2023-07-22T04:50:16;8.30;;;3.00;;
5460;SDS011;2753;49.196;8.286;2023-07-22T04:52:45;5.83;;;3.23;;
5460;SDS011;2753;49.196;8.286;2023-07-22T04:55:12;5.90;;;4.00;;
5460;SDS011;2753;49.196;8.286;2023-07-22T04:57:39;7.63;;;3.77;;
5460;SDS011;2753;49.196;8.286;2023-07-22T05:00:06;9.60;;;2.80;;
5460;SDS011;2753;49.196;8.286;2023-07-22T05:02:41;4.47;;;3.40;;
5460;SDS011;2753;49.196;8.286;2023-07-22T05:05:09;5.23;;;3.37;;
5460;SDS011;2753;49.196;8.286;2023-07-22T05:07:35;3.50;;;3.20;;
5460;SDS011;2753;49.196;8.286;2023-07-22T05:10:01;3.97;;;3.47;;
5460;SDS011;2753;49.196;8.286;2023-07-22T05:12:26;4.23;;;3.77;;
5460;SDS011;2753;49.196;8.286;2023-07-22T05:14:52;3.30;;;3.10;;
5460;SDS011;2753;49.196;8.286;2023-07-22T05:17:18;4.07;;;3.20;;
5460;SDS011;2753;49.196;8.286;2023-07-22T05:19:43;5.97;;;3.90;;
5460;SDS011;2753;49.196;8.286;2023-07-22T05:22:09;3.60;;;3.30;;
5460;SDS011;2753;49.196;8.286;2023-07-22T05:24:35;3.93;;;3.60;;
5460;SDS011;2753;49.196;8.286;2023-07-22T05:27:00;3.93;;;3.33;;
5460;SDS011;2753;49.196;8.286;2023-07-22T05:29:26;5.70;;;3.60;;
5460;SDS011;2753;49.196;8.286;2023-07-22T05:31:52;8.53;;;3.70;;
5460;SDS011;2753;49.196;8.286;2023-07-22T05:34:17;5.93;;;3.87;;
5460;SDS011;2753;49.196;8.286;2023-07-22T05:36:43;6.83;;;4.27;;
5460;SDS011;2753;49.196;8.286;2023-07-22T05:39:09;3.33;;;3.03;;
5460;SDS011;2753;49.196;8.286;2023-07-22T05:41:34;3.50;;;3.13;;
5460;SDS011;2753;49.196;8.286;2023-07-22T05:44:00;6.00;;;3.83;;
5460;SDS011;2753;49.196;8.286;2023-07-22T05:46:26;5.10;;;3.20;;
5460;SDS011;2753;49.196;8.286;2023-07-22T05:48:52;8.07;;;3.47;;
5460;SDS011;2753;49.196;8.286;2023-07-22T05:51:17;8.53;;;3.80;;
5460;SDS011;2753;49.196;8.286;2023-07-22T05:53:43;37.47;;;5.40;;
5460;SDS011;2753;49.196;8.286;2023-07-22T05:56:09;7.60;;;4.10;;
5460;SDS011;2753;49.196;8.286;2023-07-22T05:58:35;8.60;;;5.37;;
5460;SDS011;2753;49.196;8.286;2023-07-22T06:01:01;7.73;;;4.17;;
5460;SDS011;2753;49.196;8.286;2023-07-22T06:03:27;12.43;;;3.90;;
5460;SDS011;2753;49.196;8.286;2023-07-22T06:05:53;9.03;;;4.10;;
5460;SDS011;2753;49.196;8.286;2023-07-22T06:08:19;4.50;;;3.93;;
5460;SDS011;2753;49.196;8.286;2023-07-22T06:10:45;4.80;;;4.10;;
5460;SDS011;2753;49.196;8.286;2023-07-22T06:13:11;12.53;;;3.77;;
5460;SDS011;2753;49.196;8.286;2023-07-22T06:15:37;4.50;;;4.10;;
5460;SDS011;2753;49.196;8.286;2023-07-22T06:18:02;5.93;;;3.87;;
5460;SDS011;2753;49.196;8.286;2023-07-22T06:20:32;4.67;;;3.60;;
5460;SDS011;2753;49.196;8.286;2023-07-22T06:22:59;3.40;;;3.10;;
5460;SDS011;2753;49.196;8.286;2023-07-22T06:25:25;5.80;;;3.60;;
5460;SDS011;2753;49.196;8.286;2023-07-22T06:27:52;4.23;;;3.47;;
5460;SDS011;2753;49.196;8.286;2023-07-22T06:30:19;3.87;;;3.00;;
5460;SDS011;2753;49.196;8.286;2023-07-22T06:32:45;3.90;;;3.50;;
5460;SDS011;2753;49.196;8.286;2023-07-22T06:35:10;3.10;;;2.87;;
5460;SDS011;2753;49.196;8.286;2023-07-22T06:37:36;5.30;;;3.77;;
5460;SDS011;2753;49.196;8.286;2023-07-22T06:40:02;5.30;;;3.13;;
5460;SDS011;2753;49.196;8.286;2023-07-22T06:42:29;3.40;;;3.20;;
5460;SDS011;2753;49.196;8.286;2023-07-22T06:44:55;4.23;;;3.37;;
5460;SDS011;2753;49.196;8.286;2023-07-22T06:47:21;3.07;;;2.77;;
5460;SDS011;2753;49.196;8.286;2023-07-22T06:49:46;3.67;;;3.27;;
5460;SDS011;2753;49.196;8.286;2023-07-22T06:52:12;4.20;;;3.00;;
5460;SDS011;2753;49.196;8.286;2023-07-22T06:54:38;9.10;;;3.03;;
5460;SDS011;2753;49.196;8.286;2023-07-22T06:57:04;4.60;;;2.70;;
5460;SDS011;2753;49.196;8.286;2023-07-22T06:59:31;6.53;;;2.87;;
5460;SDS011;2753;49.196;8.286;2023-07-22T07:01:57;8.07;;;3.20;;
5460;SDS011;2753;49.196;8.286;2023-07-22T07:04:22;10.60;;;2.67;;
5460;SDS011;2753;49.196;8.286;2023-07-22T07:06:49;4.10;;;2.30;;
5460;SDS011;2753;49.196;8.286;2023-07-22T07:09:15;3.23;;;2.53;;
5460;SDS011;2753;49.196;8.286;2023-07-22T07:11:40;11.37;;;2.90;;
5460;SDS011;2753;49.196;8.286;2023-07-22T07:14:06;9.60;;;2.23;;
5460;SDS011;2753;49.196;8.286;2023-07-22T07:16:32;6.70;;;2.77;;
5460;SDS011;2753;49.196;8.286;2023-07-22T07:18:59;3.20;;;2.33;;
5460;SDS011;2753;49.196;8.286;2023-07-22T07:21:26;6.00;;;2.40;;
5460;SDS011;2753;49.196;8.286;2023-07-22T07:23:52;2.77;;;2.57;;
5460;SDS011;2753;49.196;8.286;2023-07-22T07:26:19;4.00;;;2.40;;
5460;SDS011;2753;49.196;8.286;2023-07-22T07:28:45;3.27;;;2.93;;
5460;SDS011;2753;49.196;8.286;2023-07-22T07:31:12;8.33;;;2.90;;
5460;SDS011;2753;49.196;8.286;2023-07-22T07:33:37;3.07;;;2.10;;
5460;SDS011;2753;49.196;8.286;2023-07-22T07:36:03;3.90;;;2.00;;
5460;SDS011;2753;49.196;8.286;2023-07-22T07:38:30;2.10;;;1.93;;
5460;SDS011;2753;49.196;8.286;2023-07-22T07:40:57;3.20;;;2.27;;
5460;SDS011;2753;49.196;8.286;2023-07-22T07:43:27;2.90;;;2.20;;
5460;SDS011;2753;49.196;8.286;2023-07-22T07:46:12;2.43;;;2.23;;
5460;SDS011;2753;49.196;8.286;2023-07-22T07:48:50;3.00;;;1.90;;
5460;SDS011;2753;49.196;8.286;2023-07-22T07:51:26;1.87;;;1.77;;
5460;SDS011;2753;49.196;8.286;2023-07-22T07:53:53;9.23;;;2.50;;
5460;SDS011;2753;49.196;8.286;2023-07-22T07:56:19;4.10;;;2.20;;
5460;SDS011;2753;49.196;8.286;2023-07-22T07:58:46;2.13;;;2.03;;
5460;SDS011;2753;49.196;8.286;2023-07-22T08:01:13;2.83;;;2.00;;
5460;SDS011;2753;49.196;8.286;2023-07-22T08:03:40;4.10;;;1.60;;
5460;SDS011;2753;49.196;8.286;2023-07-22T08:06:07;2.77;;;1.83;;
5460;SDS011;2753;49.196;8.286;2023-07-22T08:08:36;3.43;;;1.93;;
5460;SDS011;2753;49.196;8.286;2023-07-22T08:13:29;2.40;;;1.67;;
5460;SDS011;2753;49.196;8.286;2023-07-22T08:15:57;5.07;;;2.30;;
5460;SDS011;2753;49.196;8.286;2023-07-22T08:18:23;3.73;;;2.20;;
5460;SDS011;2753;49.196;8.286;2023-07-22T08:20:51;1.73;;;1.63;;
5460;SDS011;2753;49.196;8.286;2023-07-22T08:23:18;5.63;;;1.90;;
5460;SDS011;2753;49.196;8.286;2023-07-22T08:25:44;5.93;;;1.70;;
5460;SDS011;2753;49.196;8.286;2023-07-22T08:28:10;3.97;;;1.47;;
5460;SDS011;2753;49.196;8.286;2023-07-22T08:30:36;6.17;;;2.27;;
5460;SDS011;2753;49.196;8.286;2023-07-22T08:33:02;5.20;;;2.40;;
5460;SDS011;2753;49.196;8.286;2023-07-22T08:35:28;2.10;;;2.00;;
5460;SDS011;2753;49.196;8.286;2023-07-22T08:37:53;3.43;;;1.80;;
5460;SDS011;2753;49.196;8.286;2023-07-22T08:40:19;5.23;;;2.10;;
5460;SDS011;2753;49.196;8.286;2023-07-22T08:42:45;1.67;;;1.57;;
5460;SDS011;2753;49.196;8.286;2023-07-22T08:45:13;8.60;;;2.30;;
5460;SDS011;2753;49.196;8.286;2023-07-22T08:47:44;3.97;;;1.60;;
5460;SDS011;2753;49.196;8.286;2023-07-22T08:50:11;7.70;;;2.10;;
5460;SDS011;2753;49.196;8.286;2023-07-22T08:52:46;9.93;;;2.43;;
5460;SDS011;2753;49.196;8.286;2023-07-22T08:55:14;8.97;;;2.33;;
5460;SDS011;2753;49.196;8.286;2023-07-22T08:57:40;3.57;;;1.90;;
5460;SDS011;2753;49.196;8.286;2023-07-22T09:00:07;2.20;;;2.00;;
5460;SDS011;2753;49.196;8.286;2023-07-22T09:02:34;4.73;;;1.83;;
5460;SDS011;2753;49.196;8.286;2023-07-22T09:05:01;5.57;;;2.07;;
5460;SDS011;2753;49.196;8.286;2023-07-22T09:07:28;4.13;;;1.80;;
5460;SDS011;2753;49.196;8.286;2023-07-22T09:09:55;3.73;;;1.80;;
5460;SDS011;2753;49.196;8.286;2023-07-22T09:12:23;6.43;;;1.63;;
5460;SDS011;2753;49.196;8.286;2023-07-22T09:14:50;1.63;;;1.53;;
5460;SDS011;2753;49.196;8.286;2023-07-22T09:17:17;3.67;;;1.87;;
5460;SDS011;2753;49.196;8.286;2023-07-22T09:19:43;27.13;;;2.23;;
5460;SDS011;2753;49.196;8.286;2023-07-22T09:22:08;4.20;;;1.70;;
5460;SDS011;2753;49.196;8.286;2023-07-22T09:24:34;3.37;;;1.63;;
5460;SDS011;2753;49.196;8.286;2023-07-22T09:27:00;2.00;;;1.67;;
5460;SDS011;2753;49.196;8.286;2023-07-22T09:29:36;2.43;;;1.90;;
5460;SDS011;2753;49.196;8.286;2023-07-22T09:32:04;7.90;;;1.67;;
5460;SDS011;2753;49.196;8.286;2023-07-22T09:34:30;2.10;;;1.77;;
5460;SDS011;2753;49.196;8.286;2023-07-22T09:36:57;1.80;;;1.60;;
5460;SDS011;2753;49.196;8.286;2023-07-22T09:39:25;4.90;;;1.80;;
5460;SDS011;2753;49.196;8.286;2023-07-22T09:41:51;5.80;;;2.33;;
5460;SDS011;2753;49.196;8.286;2023-07-22T09:44:21;2.40;;;2.00;;
5460;SDS011;2753;49.196;8.286;2023-07-22T09:46:53;4.13;;;2.10;;
5460;SDS011;2753;49.196;8.286;2023-07-22T09:49:19;2.23;;;2.13;;
5460;SDS011;2753;49.196;8.286;2023-07-22T09:51:46;3.97;;;2.20;;
5460;SDS011;2753;49.196;8.286;2023-07-22T09:54:11;3.90;;;1.73;;
5460;SDS011;2753;49.196;8.286;2023-07-22T09:56:44;3.27;;;2.03;;
5460;SDS011;2753;49.196;8.286;2023-07-22T09:59:11;5.70;;;2.03;;
5460;SDS011;2753;49.196;8.286;2023-07-22T10:01:37;2.50;;;2.30;;
5460;SDS011;2753;49.196;8.286;2023-07-22T10:04:04;2.00;;;1.90;;
5460;SDS011;2753;49.196;8.286;2023-07-22T10:06:31;6.53;;;2.00;;
5460;SDS011;2753;49.196;8.286;2023-07-22T10:09:04;9.37;;;2.00;;
5460;SDS011;2753;49.196;8.286;2023-07-22T10:11:33;1.80;;;1.70;;
5460;SDS011;2753;49.196;8.286;2023-07-22T10:14:01;4.50;;;2.13;;
5460;SDS011;2753;49.196;8.286;2023-07-22T10:16:28;1.83;;;1.73;;
5460;SDS011;2753;49.196;8.286;2023-07-22T10:18:54;2.70;;;1.77;;
5460;SDS011;2753;49.196;8.286;2023-07-22T10:21:21;2.17;;;1.73;;
5460;SDS011;2753;49.196;8.286;2023-07-22T10:23:49;2.23;;;2.13;;
5460;SDS011;2753;49.196;8.286;2023-07-22T10:26:16;2.70;;;1.93;;
5460;SDS011;2753;49.196;8.286;2023-07-22T10:28:44;3.23;;;1.90;;
5460;SDS011;2753;49.196;8.286;2023-07-22T10:31:11;3.17;;;1.60;;
5460;SDS011;2753;49.196;8.286;2023-07-22T10:33:46;3.57;;;1.87;;
5460;SDS011;2753;49.196;8.286;2023-07-22T10:36:16;1.93;;;1.83;;
5460;SDS011;2753;49.196;8.286;2023-07-22T10:38:42;2.23;;;2.00;;
5460;SDS011;2753;49.196;8.286;2023-07-22T10:41:12;4.40;;;1.50;;
5460;SDS011;2753;49.196;8.286;2023-07-22T10:43:41;1.50;;;1.40;;
5460;SDS011;2753;49.196;8.286;2023-07-22T10:46:19;9.30;;;2.30;;
5460;SDS011;2753;49.196;8.286;2023-07-22T10:49:06;1.80;;;1.70;;
5460;SDS011;2753;49.196;8.286;2023-07-22T10:51:37;3.90;;;1.90;;
5460;SDS011;2753;49.196;8.286;2023-07-22T10:54:03;3.20;;;1.80;;
5460;SDS011;2753;49.196;8.286;2023-07-22T10:56:37;1.47;;;1.27;;
5460;SDS011;2753;49.196;8.286;2023-07-22T10:59:03;1.50;;;1.40;;
5460;SDS011;2753;49.196;8.286;2023-07-22T11:12:01;1.80;;;1.70;;
5460;SDS011;2753;49.196;8.286;2023-07-22T11:14:35;3.07;;;1.63;;
5460;SDS011;2753;49.196;8.286;2023-07-22T11:17:10;3.77;;;1.50;;
5460;SDS011;2753;49.196;8.286;2023-07-22T11:19:36;3.33;;;1.70;;
5460;SDS011;2753;49.196;8.286;2023-07-22T11:22:02;3.57;;;1.47;;
5460;SDS011;2753;49.196;8.286;2023-07-22T11:24:31;2.93;;;1.57;;
5460;SDS011;2753;49.196;8.286;2023-07-22T11:26:59;5.80;;;1.87;;
5460;SDS011;2753;49.196;8.286;2023-07-22T11:29:27;4.70;;;1.60;;
5460;SDS011;2753;49.196;8.286;2023-07-22T11:31:53;2.30;;;1.53;;
5460;SDS011;2753;49.196;8.286;2023-07-22T11:34:19;1.70;;;1.60;;
5460;SDS011;2753;49.196;8.286;2023-07-22T11:36:47;2.23;;;2.03;;
5460;SDS011;2753;49.196;8.286;2023-07-22T11:39:15;2.23;;;2.00;;
5460;SDS011;2753;49.196;8.286;2023-07-22T11:41:51;1.73;;;1.63;;
5460;SDS011;2753;49.196;8.286;2023-07-22T11:44:21;1.50;;;1.30;;
5460;SDS011;2753;49.196;8.286;2023-07-22T11:52:16;1.67;;;1.57;;
5460;SDS011;2753;49.196;8.286;2023-07-22T11:54:43;3.27;;;1.60;;
5460;SDS011;2753;49.196;8.286;2023-07-22T11:57:11;2.17;;;1.33;;
5460;SDS011;2753;49.196;8.286;2023-07-22T11:59:43;2.33;;;2.10;;
5460;SDS011;2753;49.196;8.286;2023-07-22T12:02:14;3.23;;;1.57;;
5460;SDS011;2753;49.196;8.286;2023-07-22T12:04:41;7.23;;;2.60;;
5460;SDS011;2753;49.196;8.286;2023-07-22T12:07:20;3.03;;;1.60;;
5460;SDS011;2753;49.196;8.286;2023-07-22T12:09:51;1.73;;;1.50;;
5460;SDS011;2753;49.196;8.286;2023-07-22T12:12:18;1.70;;;1.60;;
5460;SDS011;2753;49.196;8.286;2023-07-22T12:14:44;1.70;;;1.60;;
5460;SDS011;2753;49.196;8.286;2023-07-22T12:17:09;2.43;;;2.23;;
5460;SDS011;2753;49.196;8.286;2023-07-22T12:19:35;7.47;;;2.43;;
5460;SDS011;2753;49.196;8.286;2023-07-22T12:22:01;6.77;;;1.87;;
5460;SDS011;2753;49.196;8.286;2023-07-22T12:24:27;9.53;;;2.07;;
5460;SDS011;2753;49.196;8.286;2023-07-22T12:26:53;2.80;;;1.90;;
5460;SDS011;2753;49.196;8.286;2023-07-22T12:29:19;2.30;;;1.97;;
5460;SDS011;2753;49.196;8.286;2023-07-22T12:31:47;6.67;;;2.20;;
5460;SDS011;2753;49.196;8.286;2023-07-22T12:34:12;2.00;;;1.80;;
5460;SDS011;2753;49.196;8.286;2023-07-22T12:36:38;1.77;;;1.67;;
5460;SDS011;2753;49.196;8.286;2023-07-22T12:39:04;1.90;;;1.70;;
5460;SDS011;2753;49.196;8.286;2023-07-22T12:41:30;3.73;;;2.27;;
5460;SDS011;2753;49.196;8.286;2023-07-22T12:43:56;3.70;;;1.97;;
5460;SDS011;2753;49.196;8.286;2023-07-22T12:46:22;5.20;;;3.40;;
5460;SDS011;2753;49.196;8.286;2023-07-22T12:48:47;4.07;;;2.13;;
5460;SDS011;2753;49.196;8.286;2023-07-22T12:51:13;1.73;;;1.63;;
5460;SDS011;2753;49.196;8.286;2023-07-22T12:53:39;3.87;;;2.00;;
5460;SDS011;2753;49.196;8.286;2023-07-22T12:56:05;5.57;;;2.40;;
5460;SDS011;2753;49.196;8.286;2023-07-22T12:58:31;2.60;;;2.40;;
5460;SDS011;2753;49.196;8.286;2023-07-22T13:00:58;4.90;;;2.20;;
5460;SDS011;2753;49.196;8.286;2023-07-22T13:03:24;3.73;;;1.93;;
5460;SDS011;2753;49.196;8.286;2023-07-22T13:05:49;6.93;;;2.40;;
5460;SDS011;2753;49.196;8.286;2023-07-22T13:08:15;2.90;;;2.03;;
5460;SDS011;2753;49.196;8.286;2023-07-22T13:10:41;2.40;;;2.00;;
5460;SDS011;2753;49.196;8.286;2023-07-22T13:13:09;3.67;;;2.17;;
5460;SDS011;2753;49.196;8.286;2023-07-22T13:15:35;4.70;;;2.57;;
5460;SDS011;2753;49.196;8.286;2023-07-22T13:18:01;4.90;;;2.60;;
5460;SDS011;2753;49.196;8.286;2023-07-22T13:20:28;2.97;;;2.67;;
5460;SDS011;2753;49.196;8.286;2023-07-22T13:22:55;6.33;;;2.10;;
5460;SDS011;2753;49.196;8.286;2023-07-22T13:25:20;4.57;;;2.70;;
5460;SDS011;2753;49.196;8.286;2023-07-22T13:27:46;2.63;;;1.80;;
5460;SDS011;2753;49.196;8.286;2023-07-22T13:30:12;4.77;;;2.00;;
5460;SDS011;2753;49.196;8.286;2023-07-22T13:32:38;2.37;;;2.00;;
5460;SDS011;2753;49.196;8.286;2023-07-22T13:35:04;3.53;;;2.13;;
5460;SDS011;2753;49.196;8.286;2023-07-22T13:37:31;2.40;;;2.20;;
5460;SDS011;2753;49.196;8.286;2023-07-22T13:39:56;4.20;;;2.10;;
5460;SDS011;2753;49.196;8.286;2023-07-22T13:42:23;2.27;;;2.07;;
5460;SDS011;2753;49.196;8.286;2023-07-22T13:44:49;3.97;;;2.00;;
5460;SDS011;2753;49.196;8.286;2023-07-22T13:47:18;7.37;;;1.90;;
5460;SDS011;2753;49.196;8.286;2023-07-22T13:49:44;3.17;;;2.10;;
5460;SDS011;2753;49.196;8.286;2023-07-22T13:52:10;2.37;;;2.27;;
5460;SDS011;2753;49.196;8.286;2023-07-22T13:54:35;7.13;;;2.47;;
5460;SDS011;2753;49.196;8.286;2023-07-22T13:57:01;4.90;;;2.63;;
5460;SDS011;2753;49.196;8.286;2023-07-22T13:59:27;2.57;;;2.10;;
5460;SDS011;2753;49.196;8.286;2023-07-22T14:01:52;4.80;;;2.90;;
5460;SDS011;2753;49.196;8.286;2023-07-22T14:04:18;2.57;;;2.37;;
5460;SDS011;2753;49.196;8.286;2023-07-22T14:06:43;3.27;;;2.87;;
5460;SDS011;2753;49.196;8.286;2023-07-22T14:09:09;4.43;;;2.53;;
5460;SDS011;2753;49.196;8.286;2023-07-22T14:11:35;2.37;;;2.13;;
5460;SDS011;2753;49.196;8.286;2023-07-22T14:14:01;5.33;;;2.77;;
5460;SDS011;2753;49.196;8.286;2023-07-22T14:16:26;3.17;;;2.67;;
5460;SDS011;2753;49.196;8.286;2023-07-22T14:18:52;13.30;;;2.43;;
5460;SDS011;2753;49.196;8.286;2023-07-22T14:21:18;13.73;;;3.50;;
5460;SDS011;2753;49.196;8.286;2023-07-22T14:23:44;2.90;;;2.60;;
5460;SDS011;2753;49.196;8.286;2023-07-22T14:26:09;12.97;;;3.37;;
5460;SDS011;2753;49.196;8.286;2023-07-22T14:28:35;4.33;;;3.27;;
5460;SDS011;2753;49.196;8.286;2023-07-22T14:31:01;3.10;;;2.73;;
5460;SDS011;2753;49.196;8.286;2023-07-22T14:33:27;4.10;;;2.80;;
5460;SDS011;2753;49.196;8.286;2023-07-22T14:35:54;2.63;;;2.33;;
5460;SDS011;2753;49.196;8.286;2023-07-22T14:38:21;3.47;;;2.50;;
5460;SDS011;2753;49.196;8.286;2023-07-22T14:40:47;3.30;;;2.90;;
5460;SDS011;2753;49.196;8.286;2023-07-22T14:43:13;7.17;;;2.53;;
5460;SDS011;2753;49.196;8.286;2023-07-22T14:45:39;3.03;;;2.60;;
5460;SDS011;2753;49.196;8.286;2023-07-22T14:48:05;4.37;;;2.90;;
5460;SDS011;2753;49.196;8.286;2023-07-22T14:50:30;4.30;;;3.23;;
5460;SDS011;2753;49.196;8.286;2023-07-22T14:52:56;4.90;;;2.83;;
5460;SDS011;2753;49.196;8.286;2023-07-22T14:55:22;3.00;;;2.80;;
5460;SDS011;2753;49.196;8.286;2023-07-22T14:57:47;10.23;;;2.77;;
5460;SDS011;2753;49.196;8.286;2023-07-22T15:00:13;3.37;;;2.47;;
5460;SDS011;2753;49.196;8.286;2023-07-22T15:02:39;5.07;;;2.53;;
5460;SDS011;2753;49.196;8.286;2023-07-22T15:05:04;3.23;;;3.03;;
5460;SDS011;2753;49.196;8.286;2023-07-22T15:07:30;8.00;;;2.90;;
5460;SDS011;2753;49.196;8.286;2023-07-22T15:09:57;2.80;;;2.50;;
5460;SDS011;2753;49.196;8.286;2023-07-22T15:12:23;2.63;;;2.43;;
5460;SDS011;2753;49.196;8.286;2023-07-22T15:14:49;3.90;;;2.83;;
5460;SDS011;2753;49.196;8.286;2023-07-22T15:17:15;5.63;;;2.90;;
5460;SDS011;2753;49.196;8.286;2023-07-22T15:19:40;3.13;;;2.83;;
5460;SDS011;2753;49.196;8.286;2023-07-22T15:22:06;3.20;;;3.00;;
5460;SDS011;2753;49.196;8.286;2023-07-22T15:24:33;3.20;;;3.00;;
5460;SDS011;2753;49.196;8.286;2023-07-22T15:26:58;4.67;;;3.57;;
5460;SDS011;2753;49.196;8.286;2023-07-22T15:29:24;5.10;;;3.03;;
5460;SDS011;2753;49.196;8.286;2023-07-22T15:31:50;5.80;;;3.00;;